Time;durP1;ratioP1;P1;durP2;ratioP2;P2;SDS_P1;SDS_P2;PMS_P1;PMS_P2;Temp;Humidity;BMP_temperature;BMP_pressure;BME280_temperature;BME280_humidity;BME280_pressure;Samples;Min_cycle;Max_cycle;Signal;HPM_P1;HPM_P2
2022/08/22 00:00:16;;;;;;;10.48;5.60;;;;;;;13.51;97.89;101388.84;10477342;28;20033;-76
2022/08/22 00:05:23;;;;;;;10.27;6.00;;;;;;;13.46;98.25;101389.50;10462624;28;20468;-76
2022/08/22 00:10:32;;;;;;;13.90;6.10;;;;;;;13.38;98.23;101380.34;10445963;28;20041;-77
2022/08/22 00:15:39;;;;;;;11.75;7.80;;;;;;;13.38;98.90;101380.34;10460893;28;20037;-76
2022/08/22 00:20:50;;;;;;;11.48;6.05;;;;;;;13.36;99.85;101375.91;10427805;28;20037;-77
2022/08/22 00:26:01;;;;;;;8.93;6.28;;;;;;;13.37;99.93;101374.16;10443657;28;20033;-76
2022/08/22 00:31:14;;;;;;;11.38;7.15;;;;;;;13.32;100.00;101376.59;10475743;28;20083;-76
2022/08/22 00:36:23;;;;;;;7.35;4.97;;;;;;;13.31;100.00;101371.25;10442100;28;20045;-76
2022/08/22 00:42:01;;;;;;;15.77;6.20;;;;;;;13.28;100.00;101373.75;10444870;28;20120;-76
2022/08/22 00:47:20;;;;;;;10.48;6.85;;;;;;;13.26;100.00;101370.16;10444741;28;20029;-76
2022/08/22 00:52:24;;;;;;;15.18;8.13;;;;;;;13.21;100.00;101372.59;10425818;28;20033;-76
2022/08/22 00:57:38;;;;;;;11.90;6.60;;;;;;;13.18;100.00;101377.72;10442494;28;20037;-76
2022/08/22 01:03:20;;;;;;;15.48;7.28;;;;;;;13.14;100.00;101371.41;10460652;28;20049;-76
2022/08/22 01:08:42;;;;;;;10.73;7.47;;;;;;;13.14;100.00;101378.41;10434466;28;20042;-76
2022/08/22 01:14:01;;;;;;;11.30;6.90;;;;;;;13.13;100.00;101381.88;10441489;28;20121;-76
2022/08/22 01:19:16;;;;;;;12.52;6.55;;;;;;;13.12;100.00;101382.69;10457987;28;20091;-76
2022/08/22 01:25:16;;;;;;;11.23;6.90;;;;;;;13.18;100.00;101383.84;10442318;28;20764;-76
2022/08/22 01:30:26;;;;;;;11.95;7.07;;;;;;;13.22;100.00;101383.16;10443424;28;20041;-76
2022/08/22 01:35:55;;;;;;;9.23;6.20;;;;;;;13.23;100.00;101376.19;10410676;28;20080;-76
2022/08/22 01:41:20;;;;;;;23.08;8.50;;;;;;;13.25;100.00;101373.63;10440985;28;20037;-75
2022/08/22 01:46:37;;;;;;;13.07;6.82;;;;;;;13.23;100.00;101368.31;10441563;28;20492;-78
2022/08/22 01:52:10;;;;;;;12.55;6.28;;;;;;;13.19;100.00;101377.78;10442032;28;20396;-76
2022/08/22 01:57:10;;;;;;;11.50;6.90;;;;;;;13.15;100.00;101380.22;10426331;28;20033;-76
2022/08/22 02:02:31;;;;;;;11.63;6.43;;;;;;;13.08;100.00;101381.63;10439725;28;20574;-77
2022/08/22 02:07:51;;;;;;;15.75;8.82;;;;;;;13.03;100.00;101370.03;10440766;28;20075;-76
2022/08/22 02:13:12;;;;;;;19.90;10.48;;;;;;;12.99;100.00;101374.25;10440975;28;20069;-76
2022/08/22 02:18:43;;;;;;;14.50;8.40;;;;;;;12.95;100.00;101371.41;10447273;28;20041;-78
2022/08/22 02:23:51;;;;;;;12.90;8.38;;;;;;;12.91;100.00;101376.50;10447403;28;20061;-76
2022/08/22 02:28:51;;;;;;;12.45;8.48;;;;;;;12.85;100.00;101368.34;10465359;28;20036;-76
2022/08/22 02:33:55;;;;;;;12.85;8.38;;;;;;;12.77;100.00;101373.25;10449622;28;20396;-76
2022/08/22 02:39:31;;;;;;;19.00;11.32;;;;;;;12.71;100.00;101370.34;10431078;28;20504;-76
2022/08/22 02:44:40;;;;;;;11.07;8.27;;;;;;;12.62;100.00;101373.41;10415993;28;20033;-76
2022/08/22 02:49:44;;;;;;;13.95;9.30;;;;;;;12.57;100.00;101371.41;10464951;28;20044;-76
2022/08/22 02:54:45;;;;;;;20.00;10.38;;;;;;;12.49;100.00;101373.66;10464541;28;20060;-76
2022/08/22 03:00:09;;;;;;;14.00;9.45;;;;;;;12.45;100.00;101363.84;10446536;28;20116;-76
2022/08/22 03:05:23;;;;;;;20.05;11.18;;;;;;;12.41;100.00;101360.19;10430901;28;20041;-76
2022/08/22 03:10:26;;;;;;;14.07;8.32;;;;;;;12.34;100.00;101358.97;10431344;28;20513;-75
2022/08/22 03:15:38;;;;;;;19.30;10.32;;;;;;;12.24;100.00;101351.47;10463061;28;20147;-76
2022/08/22 03:20:52;;;;;;;16.63;10.45;;;;;;;12.11;100.00;101346.47;10446599;28;20090;-76
2022/08/22 03:26:28;;;;;;;12.93;10.13;;;;;;;11.99;100.00;101347.63;10445701;28;20037;-75
2022/08/22 03:31:29;;;;;;;13.70;11.10;;;;;;;11.96;100.00;101344.84;10390628;28;20076;-76
2022/08/22 03:36:30;;;;;;;12.00;8.90;;;;;;;11.96;100.00;101349.22;10429938;28;20036;-77
2022/08/22 03:42:08;;;;;;;15.55;10.40;;;;;;;11.97;100.00;101343.13;10429059;28;20025;-76
2022/08/22 03:47:51;;;;;;;18.45;11.63;;;;;;;11.94;100.00;101336.00;10445480;28;20393;-76
2022/08/22 03:53:19;;;;;;;16.15;10.32;;;;;;;11.95;100.00;101327.31;10439525;28;20047;-75
2022/08/22 03:59:08;;;;;;;15.55;10.20;;;;;;;12.02;100.00;101328.56;10446098;28;20104;-75
2022/08/22 04:04:30;;;;;;;16.08;9.38;;;;;;;12.08;100.00;101326.25;10431973;28;20068;-75
2022/08/22 04:09:52;;;;;;;23.75;14.48;;;;;;;12.21;100.00;101326.84;10440445;28;20049;-75
2022/08/22 04:15:10;;;;;;;13.93;9.33;;;;;;;12.23;100.00;101317.31;10443734;28;20090;-76
2022/08/22 04:20:13;;;;;;;15.27;10.60;;;;;;;12.28;100.00;101318.44;10423199;28;20082;-75
2022/08/22 04:25:37;;;;;;;14.75;8.93;;;;;;;12.16;100.00;101317.00;10405087;28;20037;-75
2022/08/22 04:30:53;;;;;;;17.60;9.45;;;;;;;12.09;100.00;101319.25;10437357;28;20043;-76
2022/08/22 04:35:59;;;;;;;13.15;9.23;;;;;;;11.96;100.00;101325.59;10443950;28;20476;-75
2022/08/22 04:41:04;;;;;;;13.40;10.68;;;;;;;11.96;100.00;101342.22;10442121;28;20029;-75
2022/08/22 04:46:06;;;;;;;19.15;13.60;;;;;;;12.01;100.00;101343.38;10400756;28;20095;-75
2022/08/22 04:51:11;;;;;;;;;;;;;;;12.01;100.00;101348.63;10400911;28;20782;-77
2022/08/22 04:56:35;;;;;;;28.20;12.77;;;;;;;12.00;100.00;101345.94;10472252;28;20355;-76
2022/08/22 05:01:57;;;;;;;20.15;13.20;;;;;;;11.99;100.00;101350.25;10409291;28;20132;-76
2022/08/22 05:07:05;;;;;;;21.10;12.65;;;;;;;12.01;100.00;101350.38;10403647;28;20033;-76
2022/08/22 05:12:10;;;;;;;19.40;12.18;;;;;;;12.06;100.00;101353.19;10438297;28;20497;-76
2022/08/22 05:17:17;;;;;;;13.73;12.13;;;;;;;12.14;100.00;101351.84;10425278;28;20189;-76
2022/08/22 05:22:28;;;;;;;20.85;15.40;;;;;;;12.21;100.00;101353.06;10424391;28;20045;-76
2022/08/22 05:27:32;;;;;;;24.95;16.55;;;;;;;12.26;100.00;101357.72;10426105;28;20388;-76
2022/08/22 05:33:01;;;;;;;20.17;13.90;;;;;;;12.32;100.00;101370.25;10440523;28;20086;-77
2022/08/22 05:38:01;;;;;;;20.98;14.45;;;;;;;12.40;100.00;101367.97;10412362;28;20037;-76
2022/08/22 05:43:02;;;;;;;15.80;12.50;;;;;;;12.50;100.00;101357.09;10424313;28;20021;-76
2022/08/22 05:48:09;;;;;;;21.73;13.07;;;;;;;12.72;100.00;101363.34;10424020;28;20060;-75
2022/08/22 05:53:19;;;;;;;17.88;13.70;;;;;;;13.21;100.00;101362.97;10440037;28;20033;-76
2022/08/22 05:58:38;;;;;;;20.30;13.93;;;;;;;13.86;100.00;101361.38;10398296;28;20041;-77
2022/08/22 06:03:45;;;;;;;13.57;12.18;;;;;;;14.42;100.00;101361.91;10442929;28;20049;-77
2022/08/22 06:09:05;;;;;;;15.82;11.23;;;;;;;15.00;100.00;101378.22;10440617;28;20493;-77
2022/08/22 06:14:43;;;;;;;13.00;10.88;;;;;;;15.62;100.00;101368.97;10423323;28;20041;-77
2022/08/22 06:19:46;;;;;;;16.00;12.68;;;;;;;16.05;95.23;101370.47;10473616;28;20508;-77
2022/08/22 06:24:47;;;;;;;14.10;10.93;;;;;;;16.54;92.73;101370.25;10457011;28;20120;-77
2022/08/22 06:29:52;;;;;;;20.23;11.02;;;;;;;16.88;91.72;101373.94;10417232;28;20174;-76
2022/08/22 06:34:54;;;;;;;20.80;14.25;;;;;;;17.04;88.27;101372.69;10420667;28;20045;-76
2022/08/22 06:39:54;;;;;;;18.42;13.45;;;;;;;17.12;85.58;101367.59;10445986;28;20037;-77
2022/08/22 06:45:16;;;;;;;18.13;13.73;;;;;;;17.24;86.30;101373.25;10416520;28;20068;-74
2022/08/22 06:50:24;;;;;;;21.33;16.63;;;;;;;17.49;83.90;101373.91;10399543;28;20092;-75
2022/08/22 06:55:25;;;;;;;20.02;15.13;;;;;;;17.69;83.16;101370.91;10398026;28;20064;-76
2022/08/22 07:00:26;;;;;;;22.67;15.30;;;;;;;17.70;80.95;101378.91;10414280;28;20064;-75
2022/08/22 07:05:28;;;;;;;18.42;15.20;;;;;;;17.61;82.89;101376.00;10441374;28;20053;-78
2022/08/22 07:10:28;;;;;;;16.77;14.02;;;;;;;17.74;82.10;101382.50;10461685;28;20045;-77
2022/08/22 07:15:35;;;;;;;23.92;16.65;;;;;;;17.88;83.30;101381.13;10465949;28;20044;-77
2022/08/22 07:20:37;;;;;;;20.35;13.27;;;;;;;18.18;82.82;101379.25;10454222;28;20071;-77
2022/08/22 07:25:53;;;;;;;;;;;;;;;18.43;80.21;101378.06;10418246;28;20029;-77
2022/08/22 07:30:58;;;;;;;24.05;13.50;;;;;;;18.63;80.15;101383.84;10445075;28;20280;-77
2022/08/22 07:36:00;;;;;;;17.52;12.45;;;;;;;18.85;79.06;101389.63;10447608;28;20493;-77
2022/08/22 07:41:25;;;;;;;18.67;12.40;;;;;;;18.92;76.08;101385.34;10428813;28;20119;-76
2022/08/22 07:46:32;;;;;;;26.98;13.20;;;;;;;18.94;78.11;101388.91;10428057;28;20037;-76
2022/08/22 07:51:34;;;;;;;16.83;11.07;;;;;;;19.10;76.20;101383.97;10427976;28;20037;-76
2022/08/22 07:56:58;;;;;;;17.02;10.25;;;;;;;19.27;73.81;101377.25;10444852;28;20123;-76
2022/08/22 08:01:59;;;;;;;14.55;9.00;;;;;;;19.42;74.79;101374.00;10401873;28;20050;-76
2022/08/22 08:07:00;;;;;;;19.83;10.23;;;;;;;19.67;73.77;101369.16;10386237;28;20041;-77
2022/08/22 08:12:01;;;;;;;21.05;10.23;;;;;;;19.80;74.82;101372.91;10385701;28;20046;-77
2022/08/22 08:17:06;;;;;;;17.33;10.27;;;;;;;20.14;71.80;101360.22;10368486;28;20038;-78
2022/08/22 08:22:06;;;;;;;23.35;10.43;;;;;;;20.45;73.05;101363.34;10401453;28;20280;-77
2022/08/22 08:32:32;;;;;;;22.23;11.85;;;;;;;20.93;67.00;101349.84;10430871;28;20033;-75
2022/08/22 08:37:44;;;;;;;20.75;10.15;;;;;;;20.87;68.31;101345.34;10369544;28;20029;-76
2022/08/22 08:48:41;;;;;;;14.45;8.90;;;;;;;21.84;64.71;101345.53;10428752;28;20481;-77
2022/08/22 08:54:03;;;;;;;17.35;8.93;;;;;;;22.26;63.84;101336.94;10442780;28;20473;-78
2022/08/22 08:59:22;;;;;;;16.42;7.72;;;;;;;22.71;60.26;101348.78;10441850;28;20029;-76
2022/08/22 09:04:40;;;;;;;17.40;8.57;;;;;;;23.14;59.59;101336.50;10441797;28;20045;-77
2022/08/22 09:10:12;;;;;;;15.30;9.20;;;;;;;23.43;58.89;101327.69;10440664;28;20043;-76
2022/08/22 09:15:30;;;;;;;17.75;7.32;;;;;;;23.79;57.72;101330.38;10400928;28;20077;-77
2022/08/22 09:20:45;;;;;;;11.07;7.00;;;;;;;24.22;53.78;101327.72;10402481;28;20052;-76
2022/08/22 09:25:58;;;;;;;15.15;5.53;;;;;;;24.17;53.48;101335.75;10434236;28;20449;-76
2022/08/22 09:31:17;;;;;;;17.92;6.95;;;;;;;24.28;53.42;101335.72;10435808;28;20037;-76
2022/08/22 09:36:34;;;;;;;13.73;6.22;;;;;;;24.48;49.25;101332.09;10441900;28;20118;-76
2022/08/22 09:42:01;;;;;;;10.27;4.88;;;;;;;24.39;49.83;101327.69;10381658;28;20120;-77
2022/08/22 09:47:05;;;;;;;13.73;6.47;;;;;;;24.40;51.67;101328.56;10381922;28;20395;-77
2022/08/22 09:52:11;;;;;;;7.55;4.15;;;;;;;24.70;48.83;101321.34;10398466;28;20042;-77
2022/08/22 09:57:18;;;;;;;10.80;5.25;;;;;;;24.77;49.47;101316.00;10383751;28;20045;-77
2022/08/22 10:02:21;;;;;;;12.63;6.07;;;;;;;25.16;47.47;101317.59;10421797;28;20099;-77
2022/08/22 10:07:55;;;;;;;10.35;4.03;;;;;;;25.94;44.88;101307.19;10442160;28;20037;-77
2022/08/22 10:13:06;;;;;;;10.82;3.88;;;;;;;26.70;43.25;101301.03;10439053;28;20037;-78
2022/08/22 10:18:24;;;;;;;12.30;4.30;;;;;;;27.61;42.43;101296.19;10438883;28;20049;-78
2022/08/22 10:23:53;;;;;;;11.63;4.20;;;;;;;27.49;40.04;101296.38;10440779;28;20064;-77
2022/08/22 10:29:20;;;;;;;9.60;5.03;;;;;;;26.86;41.04;101285.63;10435948;28;20068;-77
2022/08/22 10:34:24;;;;;;;9.65;4.07;;;;;;;26.72;42.77;101288.47;10414561;28;20093;-76
2022/08/22 10:39:26;;;;;;;12.75;3.63;;;;;;;26.67;41.26;101274.22;10427295;28;20083;-77
2022/08/22 10:45:13;;;;;;;9.60;4.22;;;;;;;26.71;43.78;101262.53;10454248;28;20037;-76
2022/08/22 10:50:20;;;;;;;10.48;3.67;;;;;;;26.84;43.29;101270.47;10405483;28;20037;-76
2022/08/22 10:55:25;;;;;;;11.07;4.43;;;;;;;26.71;42.78;101273.28;10372987;28;20413;-76
2022/08/22 11:00:47;;;;;;;8.00;4.55;;;;;;;26.74;41.20;101266.97;10424841;28;20037;-76
2022/08/22 11:05:48;;;;;;;16.73;5.28;;;;;;;27.14;40.65;101268.25;10447483;28;20041;-77
2022/08/22 11:11:09;;;;;;;14.50;5.57;;;;;;;27.47;42.13;101263.25;10446352;28;20041;-76
2022/08/22 11:16:21;;;;;;;6.65;3.92;;;;;;;28.45;39.70;101256.09;10445665;28;20052;-75
2022/08/22 11:22:00;;;;;;;13.35;4.20;;;;;;;28.14;39.00;101246.84;10461389;28;20041;-75
2022/08/22 11:27:23;;;;;;;8.52;4.13;;;;;;;28.11;37.84;101257.66;10403748;28;20421;-75
2022/08/22 11:32:30;;;;;;;9.85;2.97;;;;;;;27.63;37.28;101250.44;10418124;28;20055;-76
2022/08/22 11:37:42;;;;;;;8.88;3.13;;;;;;;27.91;36.74;101260.69;10422754;28;20374;-75
2022/08/22 11:42:46;;;;;;;9.43;3.38;;;;;;;28.07;36.13;101247.88;10454630;28;20355;-76
2022/08/22 11:48:10;;;;;;;13.73;4.18;;;;;;;27.94;38.48;101253.47;10399361;28;20037;-76
2022/08/22 11:53:20;;;;;;;5.72;2.53;;;;;;;27.64;40.35;101246.84;10399600;28;20076;-76
2022/08/22 11:59:02;;;;;;;8.95;2.92;;;;;;;27.72;38.34;101249.41;10381958;28;20097;-75
2022/08/22 12:04:32;;;;;;;5.28;2.70;;;;;;;27.85;38.68;101241.06;10388300;28;20490;-75
2022/08/22 12:09:54;;;;;;;7.80;2.85;;;;;;;28.01;37.06;101243.47;10361347;28;20133;-75
2022/08/22 12:14:56;;;;;;;6.65;1.95;;;;;;;28.06;34.47;101235.31;10397428;28;20053;-75
2022/08/22 12:20:26;;;;;;;6.45;2.53;;;;;;;27.65;34.34;101228.00;10403863;28;20397;-75
2022/08/22 12:25:50;;;;;;;11.98;4.10;;;;;;;28.91;35.69;101225.47;10358630;28;20046;-74
2022/08/22 12:31:15;;;;;;;9.20;2.92;;;;;;;30.00;30.90;101222.78;10409329;28;20170;-75
2022/08/22 12:36:35;;;;;;;7.13;3.83;;;;;;;30.63;30.84;101219.19;10444911;28;20090;-76
2022/08/22 12:41:42;;;;;;;7.40;2.70;;;;;;;29.60;31.37;101212.13;10482916;28;20032;-75
2022/08/22 12:47:20;;;;;;;5.32;2.60;;;;;;;28.78;32.84;101210.53;10468163;28;20039;-75
2022/08/22 12:52:39;;;;;;;9.10;3.55;;;;;;;28.62;33.39;101208.16;10482502;28;20182;-74
2022/08/22 12:58:05;;;;;;;10.43;2.95;;;;;;;28.60;33.91;101204.63;10484692;28;20124;-74
2022/08/22 13:03:31;;;;;;;9.48;2.65;;;;;;;29.55;32.92;101208.66;10483243;28;20036;-75
2022/08/22 13:08:34;;;;;;;7.82;2.30;;;;;;;30.57;30.74;101196.81;10466977;28;20435;-75
2022/08/22 13:13:42;;;;;;;11.32;3.70;;;;;;;29.22;34.53;101195.09;10466630;28;20063;-75
2022/08/22 13:18:54;;;;;;;9.13;2.90;;;;;;;28.14;36.01;101196.59;10451271;28;20037;-75
2022/08/22 13:23:55;;;;;;;5.43;2.42;;;;;;;28.01;37.82;101192.38;10442194;28;20045;-75
2022/08/22 13:28:56;;;;;;;;;;;;;;;28.92;32.37;101189.53;10423916;28;20041;-75
2022/08/22 13:34:07;;;;;;;10.90;2.63;;;;;;;28.71;32.99;101182.84;10440624;28;19920;-77
2022/08/22 13:39:14;;;;;;;;;;;;;;;28.97;33.52;101179.53;10425221;28;20059;-75
2022/08/22 13:44:20;;;;;;;7.43;2.85;;;;;;;29.15;33.13;101170.13;10464688;28;19917;-75
2022/08/22 13:49:34;;;;;;;8.70;2.90;;;;;;;29.18;32.52;101170.97;10442474;28;20033;-75
2022/08/22 13:54:41;;;;;;;9.32;2.83;;;;;;;29.15;34.10;101163.84;10429725;28;20029;-75
2022/08/22 13:59:48;;;;;;;7.00;2.60;;;;;;;29.21;33.31;101165.50;10440490;28;20064;-75
2022/08/22 14:04:49;;;;;;;10.07;3.45;;;;;;;30.06;31.34;101165.94;10425138;28;20763;-75
2022/08/22 14:09:56;;;;;;;7.07;1.87;;;;;;;29.94;31.76;101161.75;10420716;28;20131;-75
2022/08/22 14:14:59;;;;;;;7.40;2.88;;;;;;;30.95;31.63;101152.44;10413115;28;20354;-75
2022/08/22 14:20:20;;;;;;;8.68;3.30;;;;;;;31.83;29.89;101143.13;10414590;28;20546;-76
2022/08/22 14:25:22;;;;;;;8.63;2.50;;;;;;;31.51;28.53;101148.72;10431168;28;20037;-76
2022/08/22 14:30:31;;;;;;;8.10;2.28;;;;;;;30.25;32.76;101159.97;10437353;28;20045;-76
2022/08/22 14:35:34;;;;;;;11.43;2.28;;;;;;;30.68;30.99;101147.00;10388636;28;20034;-76
2022/08/22 14:40:35;;;;;;;8.95;3.30;;;;;;;30.74;31.22;101144.09;10387881;28;20037;-76
2022/08/22 14:45:38;;;;;;;8.48;2.33;;;;;;;31.70;28.57;101129.13;10406205;28;20042;-75
2022/08/22 14:50:49;;;;;;;9.05;3.33;;;;;;;30.21;30.41;101132.22;10426634;28;20045;-75
2022/08/22 14:56:20;;;;;;;10.68;4.53;;;;;;;29.05;32.89;101124.59;10407964;28;20037;-75
2022/08/22 15:01:23;;;;;;;10.32;2.63;;;;;;;28.82;34.79;101126.06;10401996;28;20046;-75
2022/08/22 15:06:35;;;;;;;6.25;2.65;;;;;;;29.24;32.04;101131.28;10423002;28;20442;-75
2022/08/22 15:11:36;;;;;;;9.75;2.92;;;;;;;28.70;33.00;101124.53;10418571;28;20037;-76
2022/08/22 15:16:56;;;;;;;7.07;2.50;;;;;;;28.24;32.75;101116.59;10445777;28;20041;-75
2022/08/22 15:22:32;;;;;;;12.10;2.95;;;;;;;28.04;36.47;101117.00;10430638;28;20052;-76
2022/08/22 15:27:34;;;;;;;8.88;3.13;;;;;;;27.53;35.93;101115.34;10339276;28;20080;-75
2022/08/22 15:32:37;;;;;;;7.35;2.08;;;;;;;27.06;38.32;101115.25;10412950;28;20041;-75
2022/08/22 15:37:56;;;;;;;6.10;3.25;;;;;;;27.29;39.93;101116.63;10445543;28;20037;-74
2022/08/22 15:42:57;;;;;;;5.10;2.30;;;;;;;27.62;37.43;101112.47;10418109;28;20033;-74
2022/08/22 15:47:58;;;;;;;7.30;3.33;;;;;;;27.21;39.76;101111.44;10426984;28;20048;-75
2022/08/22 15:53:06;;;;;;;9.63;3.00;;;;;;;26.73;40.62;101099.66;10427280;28;20037;-75
2022/08/22 15:58:11;;;;;;;5.82;2.85;;;;;;;26.51;39.46;101093.72;10443250;28;20094;-75
2022/08/22 16:03:13;;;;;;;8.95;3.15;;;;;;;26.53;36.56;101084.75;10426949;28;20412;-75
2022/08/22 16:08:27;;;;;;;8.00;2.38;;;;;;;26.42;36.97;101085.81;10444311;28;20052;-74
2022/08/22 16:13:30;;;;;;;6.22;2.20;;;;;;;26.25;39.11;101081.59;10443758;28;20041;-76
2022/08/22 16:18:41;;;;;;;4.22;2.47;;;;;;;25.85;38.91;101096.41;10474424;28;20406;-75
2022/08/22 16:23:57;;;;;;;6.45;2.40;;;;;;;25.56;38.74;101086.00;10473602;28;20044;-76
2022/08/22 16:29:09;;;;;;;6.72;2.80;;;;;;;25.58;41.46;101087.78;10435175;28;20037;-76
2022/08/22 16:34:16;;;;;;;10.68;2.53;;;;;;;25.64;38.41;101078.75;10454079;28;20048;-76
2022/08/22 16:39:19;;;;;;;7.90;2.70;;;;;;;25.43;40.81;101078.06;10438983;28;20500;-75
2022/08/22 16:44:28;;;;;;;8.50;3.40;;;;;;;25.19;41.37;101073.88;10443318;28;20477;-76
2022/08/22 16:49:30;;;;;;;7.57;2.83;;;;;;;25.16;39.10;101073.91;10475859;28;20044;-76
2022/08/22 16:54:42;;;;;;;11.45;2.70;;;;;;;24.82;41.86;101060.81;10439859;28;20045;-76
2022/08/22 17:00:04;;;;;;;5.80;2.00;;;;;;;24.42;45.49;101061.97;10430082;28;20124;-76
2022/08/22 17:05:13;;;;;;;;;;;;;;;23.97;48.61;101064.88;10445089;28;20416;-76
2022/08/22 17:10:24;;;;;;;4.68;2.00;;;;;;;23.56;51.49;101065.06;10441582;28;19977;-76
2022/08/22 17:15:31;;;;;;;21.50;3.75;;;;;;;23.28;50.96;101067.78;10441304;28;20060;-76
2022/08/22 17:20:32;;;;;;;5.13;2.08;;;;;;;23.00;54.25;101058.88;10441577;28;20039;-76
2022/08/22 17:25:52;;;;;;;6.00;3.20;;;;;;;22.73;58.24;101056.25;10442795;28;20052;-76
2022/08/22 17:31:26;;;;;;;9.63;3.50;;;;;;;22.40;57.23;101057.03;10441618;28;20045;-76
2022/08/22 17:36:59;;;;;;;7.20;3.00;;;;;;;22.11;59.17;101061.44;10442357;28;20098;-76
2022/08/22 17:42:27;;;;;;;7.90;4.10;;;;;;;21.79;60.11;101071.97;10458393;28;20097;-76
2022/08/22 17:47:31;;;;;;;4.25;2.13;;;;;;;21.44;59.96;101077.97;10480439;28;20064;-76
2022/08/22 17:53:11;;;;;;;6.85;2.20;;;;;;;21.11;60.38;101073.31;10405892;28;20069;-75
2022/08/22 17:58:13;;;;;;;17.73;12.60;;;;;;;20.83;60.92;101075.75;10423057;28;20524;-76
2022/08/22 18:03:32;;;;;;;34.85;26.10;;;;;;;20.61;63.20;101082.63;10405220;28;20045;-77
2022/08/22 18:08:53;;;;;;;8.40;3.28;;;;;;;20.30;64.53;101084.06;10441948;28;20033;-76
2022/08/22 18:14:02;;;;;;;6.88;2.65;;;;;;;20.04;68.68;101082.00;10406413;28;20490;-77
2022/08/22 18:19:31;;;;;;;12.68;8.95;;;;;;;19.69;69.95;101082.41;10415710;28;20046;-75
2022/08/22 18:24:51;;;;;;;18.77;16.75;;;;;;;19.29;70.83;101083.63;10401085;28;20374;-76
2022/08/22 18:29:57;;;;;;;47.30;42.10;;;;;;;19.11;70.98;101096.63;10381472;28;20099;-76
2022/08/22 18:35:00;;;;;;;6.85;5.28;;;;;;;18.97;71.79;101104.34;10434349;28;20131;-77
2022/08/22 18:40:19;;;;;;;9.73;3.05;;;;;;;18.71;71.40;101107.41;10463222;28;20247;-77
2022/08/22 18:45:46;;;;;;;8.57;3.60;;;;;;;18.44;72.03;101114.00;10433410;28;20508;-77
2022/08/22 18:50:47;;;;;;;7.15;2.85;;;;;;;18.33;72.39;101119.06;10400671;28;20037;-77
2022/08/22 18:55:55;;;;;;;48.58;39.40;;;;;;;18.22;72.42;101115.31;10379030;28;20111;-76
2022/08/22 19:00:58;;;;;;;128.65;98.95;;;;;;;18.11;74.46;101123.94;10412184;28;20052;-76
2022/08/22 19:06:35;;;;;;;15.02;10.82;;;;;;;18.01;76.49;101128.16;10474428;28;20067;-76
2022/08/22 19:11:49;;;;;;;7.18;3.97;;;;;;;17.95;77.81;101137.69;10437909;28;20071;-77
2022/08/22 19:17:14;;;;;;;7.68;3.70;;;;;;;17.96;77.51;101144.75;10441649;28;20106;-76
2022/08/22 19:22:18;;;;;;;17.10;4.05;;;;;;;17.98;74.16;101143.03;10444577;28;20067;-76
2022/08/22 19:27:24;;;;;;;9.07;5.47;;;;;;;17.98;73.53;101153.63;10455972;28;20051;-75
2022/08/22 19:32:43;;;;;;;8.75;4.38;;;;;;;17.97;76.35;101154.50;10457297;28;20040;-75
2022/08/22 19:37:57;;;;;;;10.55;3.67;;;;;;;17.99;75.75;101156.31;10442861;28;20465;-75
2022/08/22 19:42:57;;;;;;;8.55;4.30;;;;;;;18.01;75.71;101165.22;10421237;28;20052;-76
2022/08/22 19:48:04;;;;;;;9.48;5.13;;;;;;;18.05;76.29;101174.13;10386503;28;20036;-76
2022/08/22 19:53:23;;;;;;;9.68;3.25;;;;;;;18.08;75.34;101165.38;10366217;28;20034;-77
2022/08/22 19:58:51;;;;;;;9.13;3.72;;;;;;;18.14;75.69;101160.19;10405296;28;20037;-76
2022/08/22 20:04:04;;;;;;;8.98;4.75;;;;;;;18.17;76.33;101157.63;10404377;28;20136;-76
2022/08/22 20:09:23;;;;;;;7.95;3.45;;;;;;;18.13;76.34;101158.41;10387960;28;20442;-76
2022/08/22 20:14:34;;;;;;;7.20;3.33;;;;;;;18.12;75.99;101161.91;10401735;28;20142;-76
2022/08/22 20:19:48;;;;;;;10.13;3.92;;;;;;;18.10;75.87;101150.41;10436791;28;20396;-76
2022/08/22 20:24:56;;;;;;;7.53;3.75;;;;;;;18.04;76.73;101157.34;10441075;28;20061;-76
2022/08/22 20:30:06;;;;;;;11.70;5.38;;;;;;;18.00;77.23;101154.59;10395343;28;20405;-75
2022/08/22 20:35:09;;;;;;;8.75;5.72;;;;;;;17.96;77.55;101158.00;10398462;28;20044;-76
2022/08/22 20:40:35;;;;;;;10.30;4.32;;;;;;;17.99;78.74;101155.41;10380596;28;20481;-75
2022/08/22 20:45:37;;;;;;;11.65;5.65;;;;;;;17.96;80.14;101153.59;10407859;28;20056;-76
2022/08/22 20:50:37;;;;;;;9.03;5.13;;;;;;;17.98;79.76;101145.69;10383466;28;20092;-75
2022/08/22 20:55:38;;;;;;;8.63;4.18;;;;;;;17.95;79.33;101146.53;10378592;28;20125;-75
2022/08/22 21:00:41;;;;;;;9.68;4.97;;;;;;;17.97;78.07;101136.88;10379820;28;20042;-75
2022/08/22 21:05:43;;;;;;;5.95;3.65;;;;;;;17.98;77.00;101143.03;10388876;28;20132;-74
2022/08/22 21:16:26;;;;;;;8.85;4.03;;;;;;;18.05;76.49;101139.69;10468928;28;20060;-75
2022/08/22 21:21:31;;;;;;;17.30;4.65;;;;;;;18.08;77.85;101146.81;10452019;28;20417;-77
2022/08/22 21:26:46;;;;;;;9.75;4.40;;;;;;;18.08;77.43;101147.69;10400013;28;20460;-75
2022/08/22 21:31:54;;;;;;;8.88;4.10;;;;;;;18.04;77.34;101151.16;10418824;28;20045;-75
2022/08/22 21:36:58;;;;;;;6.53;4.20;;;;;;;18.01;77.40;101156.38;10429654;28;20709;-75
2022/08/22 21:41:59;;;;;;;18.05;5.10;;;;;;;17.91;78.26;101147.31;10408671;28;20049;-75
2022/08/22 21:47:26;;;;;;;9.18;4.35;;;;;;;17.81;78.41;101142.69;10434561;28;20045;-75
2022/08/22 21:52:50;;;;;;;17.80;4.05;;;;;;;17.68;77.63;101147.69;10436487;28;20931;-75
2022/08/22 21:58:07;;;;;;;11.40;4.93;;;;;;;17.52;77.57;101149.06;10456876;28;20119;-75
2022/08/22 22:03:08;;;;;;;13.63;4.20;;;;;;;17.41;77.48;101146.19;10450009;28;20052;-75
2022/08/22 22:08:12;;;;;;;7.65;4.05;;;;;;;17.19;78.74;101149.16;10451172;28;20037;-75
2022/08/22 22:13:12;;;;;;;11.60;4.25;;;;;;;16.97;79.69;101138.06;10441015;28;20041;-74
2022/08/22 22:18:16;;;;;;;9.05;4.15;;;;;;;16.78;80.66;101144.56;10398413;28;20437;-75
2022/08/22 22:23:17;;;;;;;9.13;4.60;;;;;;;16.52;81.31;101150.94;10467340;28;20049;-75
2022/08/22 22:28:29;;;;;;;10.15;4.70;;;;;;;16.36;82.34;101148.72;10440680;28;20072;-75
2022/08/22 22:33:34;;;;;;;10.60;4.40;;;;;;;16.18;83.52;101152.63;10440238;28;20029;-75
2022/08/22 22:38:36;;;;;;;9.55;5.63;;;;;;;16.01;84.13;101146.81;10420092;28;20041;-75
2022/08/22 22:43:37;;;;;;;10.50;4.15;;;;;;;15.91;83.94;101148.31;10466783;28;20082;-75
2022/08/22 22:48:37;;;;;;;12.02;5.80;;;;;;;15.88;83.86;101152.59;10464534;28;20029;-75
2022/08/22 22:53:38;;;;;;;8.98;4.35;;;;;;;15.77;84.30;101147.84;10434717;28;20047;-75
2022/08/22 22:58:39;;;;;;;8.40;5.75;;;;;;;15.67;84.51;101151.03;10471908;28;20066;-76
2022/08/22 23:03:40;;;;;;;7.43;3.97;;;;;;;15.59;86.12;101142.00;10477635;28;20094;-75
2022/08/22 23:08:40;;;;;;;8.05;4.47;;;;;;;15.41;86.81;101146.75;10472009;28;20135;-75
2022/08/22 23:13:41;;;;;;;7.03;4.30;;;;;;;15.28;87.10;101144.56;10482036;28;20045;-75
2022/08/22 23:18:42;;;;;;;11.02;4.45;;;;;;;15.14;87.67;101137.94;10454505;28;20068;-75
2022/08/22 23:23:42;;;;;;;10.45;5.70;;;;;;;15.03;88.16;101138.47;10484589;28;20040;-75
2022/08/22 23:28:43;;;;;;;7.75;4.90;;;;;;;14.97;89.13;101146.16;10447738;28;20028;-75
2022/08/22 23:33:44;;;;;;;7.57;5.15;;;;;;;14.96;89.69;101144.38;10460653;28;20068;-75
2022/08/22 23:38:44;;;;;;;11.18;5.18;;;;;;;15.00;89.72;101143.63;10429153;28;20033;-75
2022/08/22 23:43:46;;;;;;;9.10;4.15;;;;;;;15.04;88.98;101147.25;10446363;28;20033;-75
2022/08/22 23:48:47;;;;;;;9.57;5.50;;;;;;;14.95;88.74;101147.84;10484725;28;20044;-75
2022/08/22 23:53:47;;;;;;;7.80;4.38;;;;;;;14.87;88.99;101144.94;10484826;28;20197;-75